Time;durP1;ratioP1;P1;durP2;ratioP2;P2;SDS_P1;SDS_P2;PMS_P1;PMS_P2;Temp;Humidity;BMP_temperature;BMP_pressure;BME280_temperature;BME280_humidity;BME280_pressure;Samples;Min_cycle;Max_cycle;Signal;HPM_P1;HPM_P2
2022/12/05 00:01:20;;;;;;;;;;;2.60;99.90;;;;;;5157917;27;19959;-67
2022/12/05 00:03:47;;;;;;;;;;;2.60;99.90;;;;;;5158097;27;19911;-67
2022/12/05 00:06:12;;;;;;;;;;;2.50;99.90;;;;;;5158123;27;19907;-67
2022/12/05 00:08:37;;;;;;;;;;;2.50;99.90;;;;;;5158081;27;19907;-66
2022/12/05 00:11:03;;;;;;;;;;;2.60;99.90;;;;;;5157739;27;19911;-66
2022/12/05 00:13:28;;;;;;;;;;;2.50;99.90;;;;;;5157685;27;19967;-66
2022/12/05 00:15:54;;;;;;;;;;;2.50;99.90;;;;;;5157641;27;19911;-67
2022/12/05 00:18:19;;;;;;;;;;;2.50;99.90;;;;;;5157881;27;19911;-67
2022/12/05 00:20:45;;;;;;;;;;;2.50;99.90;;;;;;5139240;27;19907;-67
2022/12/05 00:23:11;;;;;;;;;;;2.60;99.90;;;;;;5157591;27;19966;-67
2022/12/05 00:25:36;;;;;;;;;;;2.60;99.90;;;;;;5157655;27;19946;-67
2022/12/05 00:28:02;;;;;;;;;;;2.50;99.90;;;;;;5157355;27;20022;-66
2022/12/05 00:30:27;;;;;;;;;;;2.50;99.90;;;;;;5157353;27;19914;-67
2022/12/05 00:32:53;;;;;;;;;;;2.50;99.90;;;;;;5157622;27;19917;-67
2022/12/05 00:35:18;;;;;;;;;;;2.50;99.90;;;;;;5157615;27;19907;-66
2022/12/05 00:37:44;;;;;;;;;;;2.50;99.90;;;;;;5157529;27;19932;-67
2022/12/05 00:40:09;;;;;;;;;;;2.50;99.90;;;;;;5157445;27;20291;-67
2022/12/05 00:42:35;;;;;;;;;;;2.50;99.90;;;;;;5157147;27;19956;-67
2022/12/05 00:45:00;;;;;;;;;;;2.50;99.90;;;;;;5157036;27;20387;-66
2022/12/05 00:47:26;;;;;;;;;;;2.50;99.90;;;;;;5157302;27;20378;-67
2022/12/05 00:49:51;;;;;;;;;;;2.50;99.90;;;;;;5157023;27;19907;-65
2022/12/05 00:52:17;;;;;;;;;;;2.50;99.90;;;;;;5156991;27;20329;-65
2022/12/05 00:54:42;;;;;;;;;;;2.50;99.90;;;;;;5138491;27;19907;-65
2022/12/05 00:57:07;;;;;;;;;;;2.50;99.90;;;;;;5157096;27;19908;-65
2022/12/05 00:59:33;;;;;;;;;;;2.50;99.90;;;;;;5157068;27;19915;-65
2022/12/05 01:01:58;;;;;;;;;;;2.50;99.90;;;;;;5157006;27;19910;-65
2022/12/05 01:04:24;;;;;;;;;;;2.50;99.90;;;;;;5156892;27;19954;-65
2022/12/05 01:06:52;;;;;;;;;;;2.50;99.90;;;;;;5156629;27;19914;-67
2022/12/05 01:09:19;;;;;;;;;;;2.40;99.90;;;;;;5156035;27;20364;-65
2022/12/05 01:11:45;;;;;;;;;;;2.50;99.90;;;;;;5156828;27;20321;-67
2022/12/05 01:14:11;;;;;;;;;;;2.50;99.90;;;;;;5156618;27;19943;-65
2022/12/05 01:16:37;;;;;;;;;;;2.50;99.90;;;;;;5156418;27;19965;-65
2022/12/05 01:19:04;;;;;;;;;;;2.50;99.90;;;;;;5156669;27;20376;-64
2022/12/05 01:21:30;;;;;;;;;;;2.50;99.90;;;;;;5156656;27;20276;-64
2022/12/05 01:23:56;;;;;;;;;;;2.50;99.90;;;;;;5156105;27;19925;-65
2022/12/05 01:26:21;;;;;;;;;;;2.60;99.90;;;;;;5156526;27;19907;-65
2022/12/05 01:28:47;;;;;;;;;;;2.60;99.90;;;;;;5156498;27;19913;-65
2022/12/05 01:31:29;;;;;;;;;;;2.50;99.90;;;;;;5156447;27;19930;-65
2022/12/05 01:33:56;;;;;;;;;;;2.50;99.90;;;;;;5156377;27;20346;-64
2022/12/05 01:36:22;;;;;;;;;;;2.60;99.90;;;;;;5156098;27;19946;-64
2022/12/05 01:38:48;;;;;;;;;;;2.60;99.90;;;;;;5156034;27;19914;-65
2022/12/05 01:41:15;;;;;;;;;;;2.60;99.90;;;;;;5156294;27;19908;-65
2022/12/05 01:44:01;;;;;;;;;;;2.50;99.90;;;;;;5155870;27;20005;-65
2022/12/05 01:46:27;;;;;;;;;;;2.60;99.90;;;;;;5155838;27;19954;-67
2022/12/05 01:48:54;;;;;;;;;;;2.50;99.90;;;;;;5156132;27;19915;-66
2022/12/05 01:51:20;;;;;;;;;;;2.50;99.90;;;;;;5156113;27;20273;-65
2022/12/05 01:53:45;;;;;;;;;;;2.50;99.90;;;;;;5156044;27;19907;-65
2022/12/05 01:56:11;;;;;;;;;;;2.50;99.90;;;;;;5155782;27;19955;-65
2022/12/05 01:58:39;;;;;;;;;;;2.50;99.90;;;;;;5155687;27;19907;-65
2022/12/05 02:01:04;;;;;;;;;;;2.50;99.90;;;;;;5155933;27;19998;-64
2022/12/05 02:03:30;;;;;;;;;;;2.50;99.90;;;;;;5155551;27;20395;-65
2022/12/05 02:05:56;;;;;;;;;;;2.50;99.90;;;;;;5155608;27;20265;-64
2022/12/05 02:08:22;;;;;;;;;;;2.50;99.90;;;;;;5155554;27;19907;-65
2022/12/05 02:10:49;;;;;;;;;;;2.50;99.90;;;;;;5155759;27;19907;-64
2022/12/05 02:13:21;;;;;;;;;;;2.50;99.90;;;;;;5155778;27;19938;-65
2022/12/05 02:18:59;;;;;;;;;;;2.50;99.90;;;;;;5071176;28;19919;-65
2022/12/05 02:21:45;;;;;;;;;;;2.50;99.90;;;;;;5070995;28;19920;-64
2022/12/05 02:27:12;;;;;;;;;;;2.60;99.90;;;;;;5071143;28;19919;-66
2022/12/05 02:29:58;;;;;;;;;;;2.50;99.90;;;;;;5070954;28;19912;-65
2022/12/05 02:32:31;;;;;;;;;;;2.50;99.90;;;;;;5070983;28;19913;-65
2022/12/05 02:37:56;;;;;;;;;;;2.50;99.90;;;;;;5071161;28;19935;-67
2022/12/05 02:40:24;;;;;;;;;;;2.50;99.90;;;;;;5070987;28;19919;-66
2022/12/05 02:42:57;;;;;;;;;;;2.50;99.90;;;;;;5071161;28;19912;-64
2022/12/05 02:45:24;;;;;;;;;;;2.60;99.90;;;;;;5071109;28;19909;-64
2022/12/05 02:47:50;;;;;;;;;;;2.50;99.90;;;;;;5069610;28;19909;-64
2022/12/05 02:50:18;;;;;;;;;;;2.50;99.90;;;;;;5071050;28;19909;-65
2022/12/05 02:52:45;;;;;;;;;;;2.50;99.90;;;;;;5070698;28;19909;-66
2022/12/05 02:55:12;;;;;;;;;;;2.50;99.90;;;;;;5070755;28;19920;-65
2022/12/05 02:57:39;;;;;;;;;;;2.50;99.90;;;;;;5070559;28;19924;-65
2022/12/05 03:00:05;;;;;;;;;;;2.50;99.90;;;;;;5070840;28;19931;-64
2022/12/05 03:02:32;;;;;;;;;;;2.50;99.90;;;;;;5070499;28;19909;-65
2022/12/05 03:05:03;;;;;;;;;;;2.50;99.90;;;;;;5070777;28;19952;-67
2022/12/05 03:07:30;;;;;;;;;;;2.50;99.90;;;;;;5070467;28;19952;-66
2022/12/05 03:09:59;;;;;;;;;;;2.50;99.90;;;;;;5070640;28;20263;-65
2022/12/05 03:12:27;;;;;;;;;;;2.50;99.90;;;;;;5070256;28;19915;-67
2022/12/05 03:14:56;;;;;;;;;;;2.50;99.90;;;;;;5070290;28;20294;-66
2022/12/05 03:17:24;;;;;;;;;;;2.50;99.90;;;;;;5070425;28;20286;-65
2022/12/05 03:20:09;;;;;;;;;;;2.50;99.90;;;;;;5070230;28;19915;-67
2022/12/05 03:22:44;;;;;;;;;;;2.50;99.90;;;;;;5070070;28;19962;-64
2022/12/05 03:25:11;;;;;;;;;;;2.50;99.90;;;;;;5068840;28;19963;-65
2022/12/05 03:27:45;;;;;;;;;;;2.50;99.90;;;;;;5070038;28;19909;-65
2022/12/05 03:30:13;;;;;;;;;;;2.50;99.90;;;;;;5070268;28;19985;-65
2022/12/05 03:32:41;;;;;;;;;;;2.50;99.90;;;;;;5069916;28;19917;-65
2022/12/05 03:35:26;;;;;;;;;;;2.50;99.90;;;;;;5069832;28;20016;-66
2022/12/05 03:37:55;;;;;;;;;;;2.60;99.90;;;;;;5090122;28;19920;-65
2022/12/05 03:40:40;;;;;;;;;;;2.50;99.90;;;;;;5090263;28;20007;-65
2022/12/05 03:43:12;;;;;;;;;;;2.50;99.90;;;;;;5089923;28;19908;-68
2022/12/05 03:45:42;;;;;;;;;;;2.50;99.90;;;;;;5090191;28;19912;-65
2022/12/05 03:48:13;;;;;;;;;;;2.50;99.90;;;;;;5082348;28;19916;-65
2022/12/05 03:50:39;;;;;;;;;;;2.50;99.90;;;;;;5076574;28;20007;-65
2022/12/05 03:53:08;;;;;;;;;;;2.50;99.90;;;;;;5058502;28;19909;-65
2022/12/05 03:55:36;;;;;;;;;;;2.50;99.90;;;;;;5076181;28;19908;-65
2022/12/05 03:58:06;;;;;;;;;;;2.50;99.90;;;;;;5076455;28;19920;-64
2022/12/05 04:00:33;;;;;;;;;;;2.50;99.90;;;;;;5076362;28;19913;-64
2022/12/05 04:03:08;;;;;;;;;;;2.60;99.90;;;;;;5076095;28;19912;-64
2022/12/05 04:05:39;;;;;;;;;;;2.50;99.90;;;;;;5075989;28;19908;-65
2022/12/05 04:08:06;;;;;;;;;;;2.50;99.90;;;;;;5076222;28;19908;-64
2022/12/05 04:10:47;;;;;;;;;;;2.50;99.90;;;;;;5057998;28;19909;-65
2022/12/05 04:13:18;;;;;;;;;;;2.50;99.90;;;;;;5075940;28;19909;-64
2022/12/05 04:19:01;;;;;;;;;;;2.50;99.90;;;;;;5075718;28;20435;-65
2022/12/05 04:21:44;;;;;;;;;;;2.50;99.90;;;;;;5075821;28;20377;-64
2022/12/05 04:27:04;;;;;;;;;;;2.50;99.90;;;;;;5075490;28;19943;-65
2022/12/05 04:29:32;;;;;;;;;;;2.50;99.90;;;;;;5075585;28;19916;-65
2022/12/05 04:32:00;;;;;;;;;;;2.60;99.90;;;;;;5075846;28;19957;-65
2022/12/05 04:34:28;;;;;;;;;;;2.50;99.90;;;;;;5075766;28;20266;-64
2022/12/05 04:37:03;;;;;;;;;;;2.50;99.90;;;;;;5075280;28;20320;-65
2022/12/05 04:39:38;;;;;;;;;;;2.50;99.90;;;;;;5075646;28;19992;-65
2022/12/05 04:42:06;;;;;;;;;;;2.50;99.90;;;;;;5057750;28;19916;-65
2022/12/05 04:44:34;;;;;;;;;;;2.50;99.90;;;;;;5075327;28;19919;-65
2022/12/05 04:47:01;;;;;;;;;;;2.50;99.90;;;;;;5075294;28;19999;-65
2022/12/05 04:49:28;;;;;;;;;;;2.50;99.90;;;;;;5075468;28;19981;-65
2022/12/05 04:51:55;;;;;;;;;;;2.50;99.90;;;;;;5075346;28;20350;-65
2022/12/05 04:54:24;;;;;;;;;;;2.50;99.90;;;;;;5075102;28;19915;-65
2022/12/05 04:56:52;;;;;;;;;;;2.50;99.90;;;;;;5075186;28;19918;-65
2022/12/05 04:59:17;;;;;;;;;;;2.50;99.90;;;;;;5074269;28;20404;-66
2022/12/05 05:01:47;;;;;;;;;;;2.50;99.90;;;;;;5075283;28;19908;-65
2022/12/05 05:04:15;;;;;;;;;;;2.40;99.90;;;;;;5074904;28;19995;-65
2022/12/05 05:06:41;;;;;;;;;;;2.40;99.90;;;;;;5075072;28;19917;-65
2022/12/05 05:09:07;;;;;;;;;;;2.40;99.90;;;;;;5075078;28;19973;-65
2022/12/05 05:11:33;;;;;;;;;;;2.40;99.90;;;;;;5074713;28;19957;-65
2022/12/05 05:13:59;;;;;;;;;;;2.50;99.90;;;;;;5074992;28;20012;-65
2022/12/05 05:16:26;;;;;;;;;;;2.50;99.90;;;;;;5074849;28;20118;-65
2022/12/05 05:18:52;;;;;;;;;;;2.50;99.90;;;;;;5074912;28;19913;-65
2022/12/05 05:21:29;;;;;;;;;;;2.50;99.90;;;;;;5074615;28;20050;-65
2022/12/05 05:23:55;;;;;;;;;;;2.50;99.90;;;;;;5074512;28;19915;-65
2022/12/05 05:26:21;;;;;;;;;;;2.40;99.90;;;;;;5074741;28;20011;-65
2022/12/05 05:28:47;;;;;;;;;;;2.40;99.90;;;;;;5074475;28;20414;-66
2022/12/05 05:31:12;;;;;;;;;;;2.40;99.90;;;;;;5074646;28;19908;-65
2022/12/05 05:33:38;;;;;;;;;;;2.50;99.90;;;;;;5074583;28;19917;-65
2022/12/05 05:36:05;;;;;;;;;;;2.40;99.90;;;;;;5056418;28;19921;-65
2022/12/05 05:38:33;;;;;;;;;;;2.50;99.90;;;;;;5074508;28;20385;-65
2022/12/05 05:40:59;;;;;;;;;;;2.50;99.90;;;;;;5074460;28;19919;-65
2022/12/05 05:43:24;;;;;;;;;;;2.50;99.90;;;;;;5074426;28;20370;-65
2022/12/05 05:45:50;;;;;;;;;;;2.50;99.90;;;;;;5074191;28;20355;-65
2022/12/05 05:48:15;;;;;;;;;;;2.50;99.90;;;;;;5074111;28;20309;-66
2022/12/05 05:50:40;;;;;;;;;;;2.50;99.90;;;;;;5074316;28;19935;-65
2022/12/05 05:53:06;;;;;;;;;;;2.40;99.90;;;;;;5074278;28;20355;-65
2022/12/05 05:55:31;;;;;;;;;;;2.50;99.90;;;;;;5073894;28;19909;-65
2022/12/05 05:57:57;;;;;;;;;;;2.30;99.90;;;;;;5073956;28;19913;-65
2022/12/05 06:00:22;;;;;;;;;;;2.30;99.90;;;;;;5074163;28;19913;-65
2022/12/05 06:02:48;;;;;;;;;;;2.20;99.90;;;;;;5074158;28;19908;-64
2022/12/05 06:05:13;;;;;;;;;;;2.20;99.90;;;;;;5073835;28;20377;-65
2022/12/05 06:07:39;;;;;;;;;;;2.20;99.90;;;;;;5074100;28;20254;-65
2022/12/05 06:10:04;;;;;;;;;;;2.20;99.90;;;;;;5074025;28;19908;-64
2022/12/05 06:12:30;;;;;;;;;;;2.10;99.90;;;;;;5073578;28;19978;-65
2022/12/05 06:14:55;;;;;;;;;;;2.10;99.90;;;;;;5073717;28;19915;-65
2022/12/05 06:17:21;;;;;;;;;;;2.10;99.90;;;;;;5073857;28;19916;-64
2022/12/05 06:19:46;;;;;;;;;;;2.10;99.90;;;;;;5073701;28;19909;-64
2022/12/05 06:22:12;;;;;;;;;;;2.10;99.90;;;;;;5073904;28;19908;-64
2022/12/05 06:24:37;;;;;;;;;;;2.10;99.90;;;;;;5073871;28;19995;-64
2022/12/05 06:27:03;;;;;;;;;;;2.10;99.90;;;;;;5073879;28;19916;-64
2022/12/05 06:29:28;;;;;;;;;;;2.10;99.90;;;;;;5073517;28;19909;-65
2022/12/05 06:31:54;;;;;;;;;;;2.10;99.90;;;;;;5073769;28;19909;-65
2022/12/05 06:34:19;;;;;;;;;;;2.10;99.90;;;;;;5073596;28;19909;-64
2022/12/05 06:36:45;;;;;;;;;;;2.10;99.90;;;;;;5073260;28;20018;-64
2022/12/05 06:39:10;;;;;;;;;;;2.10;99.90;;;;;;5073736;28;19909;-64
2022/12/05 06:41:36;;;;;;;;;;;2.00;99.90;;;;;;5073706;28;19915;-64
2022/12/05 06:44:01;;;;;;;;;;;2.00;99.90;;;;;;5073630;28;19912;-65
2022/12/05 06:46:27;;;;;;;;;;;1.90;99.90;;;;;;5073355;28;20267;-64
2022/12/05 06:48:52;;;;;;;;;;;1.90;99.90;;;;;;5073356;28;19916;-65
2022/12/05 06:51:18;;;;;;;;;;;1.80;99.90;;;;;;5073681;28;19963;-64
2022/12/05 06:53:44;;;;;;;;;;;1.80;99.90;;;;;;5073535;28;19909;-65
2022/12/05 06:56:14;;;;;;;;;;;1.80;99.90;;;;;;5073554;28;19913;-65
2022/12/05 06:58:40;;;;;;;;;;;1.80;99.90;;;;;;5073324;28;20376;-65
2022/12/05 07:01:41;;;;;;;;;;;1.80;99.90;;;;;;5073192;28;19959;-65
2022/12/05 07:03:55;;;;;;;;;;;1.80;99.90;;;;;;5073118;28;19915;-65
2022/12/05 07:06:20;;;;;;;;;;;1.80;99.90;;;;;;5055505;28;19909;-65
2022/12/05 07:08:46;;;;;;;;;;;1.80;99.90;;;;;;5073189;28;19908;-65
2022/12/05 07:11:11;;;;;;;;;;;1.80;99.90;;;;;;5073084;28;20398;-65
2022/12/05 07:13:37;;;;;;;;;;;1.80;99.90;;;;;;5073190;28;20003;-65
2022/12/05 07:16:05;;;;;;;;;;;1.80;99.90;;;;;;5073340;28;20285;-65
2022/12/05 07:18:31;;;;;;;;;;;1.80;99.90;;;;;;5073306;28;19995;-65
2022/12/05 07:20:58;;;;;;;;;;;1.90;99.90;;;;;;5072996;28;19950;-65
2022/12/05 07:23:23;;;;;;;;;;;1.90;99.90;;;;;;5074960;28;19908;-65
2022/12/05 07:25:49;;;;;;;;;;;1.90;99.90;;;;;;5077053;28;19908;-64
2022/12/05 07:28:14;;;;;;;;;;;1.90;99.90;;;;;;5077019;28;20378;-65
2022/12/05 07:30:39;;;;;;;;;;;1.90;99.90;;;;;;5076468;28;20540;-65
2022/12/05 07:33:05;;;;;;;;;;;1.90;99.90;;;;;;5076640;28;20362;-65
2022/12/05 07:35:30;;;;;;;;;;;1.90;99.90;;;;;;5076432;28;20334;-64
2022/12/05 07:37:56;;;;;;;;;;;1.90;99.90;;;;;;5076468;28;20332;-65
2022/12/05 07:40:21;;;;;;;;;;;2.00;99.90;;;;;;5058618;28;19912;-65
2022/12/05 07:42:47;;;;;;;;;;;2.00;99.90;;;;;;5075985;28;20023;-66
2022/12/05 07:45:13;;;;;;;;;;;2.00;99.90;;;;;;5069302;28;19913;-64
2022/12/05 07:47:38;;;;;;;;;;;1.90;99.90;;;;;;5068585;28;19923;-64
2022/12/05 07:50:04;;;;;;;;;;;1.90;99.90;;;;;;5076024;28;19916;-63
2022/12/05 07:52:30;;;;;;;;;;;2.00;99.90;;;;;;5076191;28;19947;-63
2022/12/05 07:54:55;;;;;;;;;;;2.00;99.90;;;;;;5075028;28;19995;-64
2022/12/05 07:57:21;;;;;;;;;;;1.90;99.90;;;;;;5075959;28;19913;-65
2022/12/05 07:59:46;;;;;;;;;;;2.00;99.90;;;;;;5075754;28;19920;-64
2022/12/05 08:02:11;;;;;;;;;;;2.00;99.90;;;;;;5075709;28;19916;-64
2022/12/05 08:04:37;;;;;;;;;;;2.00;99.90;;;;;;5070581;28;19920;-64
2022/12/05 08:07:02;;;;;;;;;;;2.00;99.90;;;;;;5076206;28;19915;-64
2022/12/05 08:09:28;;;;;;;;;;;2.00;99.90;;;;;;5075543;28;19919;-64
2022/12/05 08:11:53;;;;;;;;;;;2.00;99.90;;;;;;5075746;28;19925;-64
2022/12/05 08:14:19;;;;;;;;;;;2.10;99.90;;;;;;5074902;28;20366;-65
2022/12/05 08:16:44;;;;;;;;;;;2.10;99.90;;;;;;5075740;28;20290;-64
2022/12/05 08:19:12;;;;;;;;;;;2.10;99.90;;;;;;5075647;28;19921;-64
2022/12/05 08:21:38;;;;;;;;;;;2.10;99.90;;;;;;5075523;28;20378;-64
2022/12/05 08:24:04;;;;;;;;;;;2.10;99.90;;;;;;5075893;28;19908;-64
2022/12/05 08:26:30;;;;;;;;;;;2.10;99.90;;;;;;5075849;28;19915;-64
2022/12/05 08:28:57;;;;;;;;;;;2.00;99.90;;;;;;5074663;28;19920;-64
2022/12/05 08:31:23;;;;;;;;;;;2.00;99.90;;;;;;5076601;28;19916;-64
2022/12/05 08:33:50;;;;;;;;;;;2.00;99.90;;;;;;5075255;28;20042;-64
2022/12/05 08:36:15;;;;;;;;;;;2.00;99.90;;;;;;5075147;28;20392;-65
2022/12/05 08:38:41;;;;;;;;;;;2.00;99.90;;;;;;5075590;28;19909;-63
2022/12/05 08:41:08;;;;;;;;;;;1.90;99.90;;;;;;5074955;28;19931;-65
2022/12/05 08:43:34;;;;;;;;;;;1.90;99.90;;;;;;5065609;28;19912;-64
2022/12/05 08:46:00;;;;;;;;;;;1.90;99.90;;;;;;5075093;28;20374;-63
2022/12/05 08:48:26;;;;;;;;;;;1.90;99.90;;;;;;5074434;28;19912;-64
2022/12/05 08:50:52;;;;;;;;;;;1.80;99.90;;;;;;5075037;28;20370;-64
2022/12/05 08:53:17;;;;;;;;;;;1.80;99.90;;;;;;5074891;28;19918;-64
2022/12/05 08:55:44;;;;;;;;;;;1.70;99.90;;;;;;5074886;28;20259;-62
2022/12/05 08:58:10;;;;;;;;;;;1.70;99.90;;;;;;5074494;28;19919;-65
2022/12/05 09:00:35;;;;;;;;;;;1.60;99.90;;;;;;5074871;28;19908;-65
2022/12/05 09:03:01;;;;;;;;;;;1.60;99.90;;;;;;5075120;28;19912;-65
2022/12/05 09:05:26;;;;;;;;;;;1.60;99.90;;;;;;5074895;28;19913;-65
2022/12/05 09:07:52;;;;;;;;;;;1.60;99.90;;;;;;5056547;28;19920;-65
2022/12/05 09:10:17;;;;;;;;;;;1.60;99.90;;;;;;5075009;28;19909;-65
2022/12/05 09:12:43;;;;;;;;;;;1.60;99.90;;;;;;5074412;28;19936;-66
2022/12/05 09:15:09;;;;;;;;;;;1.60;99.90;;;;;;5074925;28;19958;-66
2022/12/05 09:17:35;;;;;;;;;;;1.50;99.90;;;;;;5074648;28;20356;-66
2022/12/05 09:20:00;;;;;;;;;;;1.50;99.90;;;;;;5074408;28;19916;-64
2022/12/05 09:22:26;;;;;;;;;;;1.40;99.90;;;;;;5074468;28;19960;-65
2022/12/05 09:24:52;;;;;;;;;;;1.50;99.90;;;;;;5074152;28;19917;-63
2022/12/05 09:27:17;;;;;;;;;;;1.40;99.90;;;;;;5074346;28;19908;-64
2022/12/05 09:29:43;;;;;;;;;;;1.40;99.90;;;;;;5073892;28;19912;-64
2022/12/05 09:32:09;;;;;;;;;;;1.40;99.90;;;;;;5074208;28;19966;-64
2022/12/05 09:34:35;;;;;;;;;;;1.30;99.90;;;;;;5073934;28;20331;-64
2022/12/05 09:37:00;;;;;;;;;;;1.30;99.90;;;;;;5073995;28;19920;-65
2022/12/05 09:39:26;;;;;;;;;;;1.30;99.90;;;;;;5073785;28;19918;-64
2022/12/05 09:42:12;;;;;;;;;;;1.30;99.90;;;;;;5073666;28;20007;-64
2022/12/05 09:44:40;;;;;;;;;;;1.30;99.90;;;;;;5073382;28;19916;-63
2022/12/05 09:47:13;;;;;;;;;;;1.40;99.90;;;;;;5073476;28;19913;-63
2022/12/05 09:49:45;;;;;;;;;;;1.40;99.90;;;;;;5073705;28;20313;-64
2022/12/05 09:52:15;;;;;;;;;;;1.40;99.90;;;;;;5073945;28;19908;-64
2022/12/05 09:54:40;;;;;;;;;;;1.40;99.90;;;;;;5073593;28;19934;-64
2022/12/05 09:57:08;;;;;;;;;;;1.40;99.90;;;;;;5061709;28;19916;-64
2022/12/05 09:59:33;;;;;;;;;;;1.40;99.90;;;;;;5074119;28;19908;-64
2022/12/05 10:02:02;;;;;;;;;;;1.30;99.90;;;;;;5074003;28;20007;-64
2022/12/05 10:04:44;;;;;;;;;;;1.30;99.90;;;;;;5073976;28;19915;-65
2022/12/05 10:07:16;;;;;;;;;;;1.30;99.90;;;;;;5072980;28;20007;-65
2022/12/05 10:12:40;;;;;;;;;;;1.30;99.90;;;;;;5090977;27;19999;-64
2022/12/05 10:15:16;;;;;;;;;;;1.40;99.90;;;;;;5091258;28;20421;-64
2022/12/05 10:17:44;;;;;;;;;;;1.40;99.90;;;;;;5090707;28;19918;-64
2022/12/05 10:20:16;;;;;;;;;;;1.40;99.90;;;;;;5090825;28;20380;-64
2022/12/05 10:22:46;;;;;;;;;;;1.50;99.90;;;;;;5090899;28;20413;-64
2022/12/05 10:25:14;;;;;;;;;;;1.50;99.90;;;;;;5090824;28;19913;-64
2022/12/05 10:27:41;;;;;;;;;;;1.50;99.90;;;;;;5090976;28;19931;-64
2022/12/05 10:30:13;;;;;;;;;;;1.60;99.90;;;;;;5090362;28;19970;-64
2022/12/05 10:32:58;;;;;;;;;;;1.60;99.90;;;;;;5090302;28;19951;-64
2022/12/05 10:35:26;;;;;;;;;;;1.60;99.90;;;;;;5090419;28;20291;-64
2022/12/05 10:37:54;;;;;;;;;;;1.60;99.90;;;;;;5090349;28;19920;-64
2022/12/05 10:40:20;;;;;;;;;;;1.60;99.90;;;;;;5090578;28;19908;-64
2022/12/05 10:42:46;;;;;;;;;;;1.70;99.90;;;;;;5090793;28;19913;-63
2022/12/05 10:45:14;;;;;;;;;;;1.60;99.90;;;;;;5090712;28;20282;-64
2022/12/05 10:47:39;;;;;;;;;;;1.60;99.90;;;;;;5088811;28;19919;-64
2022/12/05 10:50:16;;;;;;;;;;;1.60;99.90;;;;;;5090301;28;19908;-64
2022/12/05 10:52:41;;;;;;;;;;;1.50;99.90;;;;;;5090146;28;19916;-64
2022/12/05 10:55:07;;;;;;;;;;;1.50;99.90;;;;;;5089954;28;19916;-64
2022/12/05 10:57:32;;;;;;;;;;;1.50;99.90;;;;;;5089932;28;19912;-66
2022/12/05 11:00:08;;;;;;;;;;;1.50;99.90;;;;;;5089376;28;19912;-66
2022/12/05 11:02:35;;;;;;;;;;;1.40;99.90;;;;;;5089598;28;19925;-64
2022/12/05 11:05:01;;;;;;;;;;;1.40;99.90;;;;;;5090115;28;19909;-65
2022/12/05 11:07:29;;;;;;;;;;;1.40;99.90;;;;;;5090067;28;19913;-66
2022/12/05 11:09:56;;;;;;;;;;;1.40;99.90;;;;;;5089873;28;19909;-64
2022/12/05 11:12:26;;;;;;;;;;;1.40;99.90;;;;;;5108479;28;20041;-64
2022/12/05 11:14:53;;;;;;;;;;;1.30;99.90;;;;;;5110168;28;19908;-64
2022/12/05 11:17:24;;;;;;;;;;;1.30;99.90;;;;;;5110369;28;19908;-64
2022/12/05 11:19:50;;;;;;;;;;;1.30;99.90;;;;;;5110400;28;19908;-66
2022/12/05 11:22:16;;;;;;;;;;;1.30;99.90;;;;;;5105771;28;20353;-65
2022/12/05 11:24:41;;;;;;;;;;;1.40;99.90;;;;;;5096199;28;19915;-68
2022/12/05 11:29:58;;;;;;;;;;;1.30;99.90;;;;;;5070502;28;20306;-66
2022/12/05 11:32:25;;;;;;;;;;;1.30;99.90;;;;;;5071095;28;20432;-66
2022/12/05 11:35:10;;;;;;;;;;;1.40;99.90;;;;;;5071042;28;20358;-64
2022/12/05 11:37:39;;;;;;;;;;;1.40;99.90;;;;;;5067825;28;19947;-64
2022/12/05 11:40:13;;;;;;;;;;;1.40;99.90;;;;;;5050528;28;19913;-66
2022/12/05 11:42:49;;;;;;;;;;;1.50;99.90;;;;;;5053090;28;19921;-64
2022/12/05 11:45:24;;;;;;;;;;;1.50;99.90;;;;;;5061423;28;19913;-64
2022/12/05 11:48:05;;;;;;;;;;;1.50;99.90;;;;;;5054149;28;19912;-64
2022/12/05 11:50:39;;;;;;;;;;;1.60;99.90;;;;;;5060785;28;20278;-64
2022/12/05 11:53:25;;;;;;;;;;;1.60;99.90;;;;;;5055702;28;19971;-64
2022/12/05 11:55:53;;;;;;;;;;;1.60;99.90;;;;;;5064606;28;19920;-64
2022/12/05 11:58:38;;;;;;;;;;;1.60;99.90;;;;;;5070268;28;20023;-67
2022/12/05 12:01:12;;;;;;;;;;;1.50;99.90;;;;;;5070262;28;19961;-67
2022/12/05 12:03:42;;;;;;;;;;;1.50;99.90;;;;;;5057825;28;20428;-65
2022/12/05 12:06:27;;;;;;;;;;;1.50;99.90;;;;;;5051851;28;20405;-65
2022/12/05 12:09:04;;;;;;;;;;;1.50;99.90;;;;;;5052285;28;19912;-64
2022/12/05 12:11:50;;;;;;;;;;;1.50;99.90;;;;;;5057483;28;20263;-65
2022/12/05 12:14:24;;;;;;;;;;;1.50;99.90;;;;;;5050906;28;19975;-63
2022/12/05 12:16:56;;;;;;;;;;;1.50;99.90;;;;;;5053531;28;19916;-64
2022/12/05 12:19:34;;;;;;;;;;;1.40;99.90;;;;;;5052828;28;19920;-64
2022/12/05 12:22:09;;;;;;;;;;;1.50;99.90;;;;;;5061687;28;19917;-66
2022/12/05 12:24:54;;;;;;;;;;;1.50;99.90;;;;;;5055481;28;19920;-65
2022/12/05 12:27:40;;;;;;;;;;;1.50;99.90;;;;;;5056252;28;19962;-65
2022/12/05 12:30:11;;;;;;;;;;;1.50;99.90;;;;;;5073056;28;19920;-64
2022/12/05 12:32:42;;;;;;;;;;;1.40;99.90;;;;;;5070758;28;19917;-64
2022/12/05 12:35:14;;;;;;;;;;;1.40;99.90;;;;;;5080632;28;20007;-64
2022/12/05 12:37:47;;;;;;;;;;;1.40;99.90;;;;;;5069482;28;19913;-65
2022/12/05 12:40:21;;;;;;;;;;;1.40;99.90;;;;;;5061842;28;19932;-64
2022/12/05 12:42:54;;;;;;;;;;;1.40;99.90;;;;;;5066452;28;19912;-64
2022/12/05 12:45:26;;;;;;;;;;;1.40;99.90;;;;;;5056158;28;19916;-64
2022/12/05 12:48:05;;;;;;;;;;;1.30;99.90;;;;;;5056183;28;19913;-66
2022/12/05 12:50:31;;;;;;;;;;;1.30;99.90;;;;;;5056352;28;20271;-64
2022/12/05 12:53:04;;;;;;;;;;;1.30;99.90;;;;;;5054519;28;19909;-64
2022/12/05 12:55:40;;;;;;;;;;;1.30;99.90;;;;;;5044755;28;19917;-64
2022/12/05 12:58:14;;;;;;;;;;;1.30;99.90;;;;;;5044332;28;19916;-64
2022/12/05 13:00:46;;;;;;;;;;;1.20;99.90;;;;;;5055792;28;19923;-64
2022/12/05 13:03:16;;;;;;;;;;;1.20;99.90;;;;;;5056042;28;19913;-64
2022/12/05 13:05:45;;;;;;;;;;;1.20;99.90;;;;;;5055038;28;19909;-64
2022/12/05 13:08:31;;;;;;;;;;;1.20;99.90;;;;;;5036662;28;19924;-63
2022/12/05 13:10:58;;;;;;;;;;;1.20;99.90;;;;;;5058574;28;19920;-67
2022/12/05 13:13:26;;;;;;;;;;;1.20;99.90;;;;;;5055540;28;19931;-64
2022/12/05 13:15:57;;;;;;;;;;;1.20;99.90;;;;;;5047611;28;19913;-66
2022/12/05 13:18:23;;;;;;;;;;;1.20;99.90;;;;;;5055067;28;19912;-63
2022/12/05 13:20:52;;;;;;;;;;;1.20;99.90;;;;;;5066923;28;19919;-67
2022/12/05 13:23:20;;;;;;;;;;;1.20;99.90;;;;;;5055516;28;19934;-67
2022/12/05 13:25:46;;;;;;;;;;;1.20;99.90;;;;;;5056094;28;19909;-63
2022/12/05 13:28:31;;;;;;;;;;;1.20;99.90;;;;;;5058711;28;19921;-64
2022/12/05 13:31:00;;;;;;;;;;;1.20;99.90;;;;;;5057388;28;19917;-63
2022/12/05 13:33:29;;;;;;;;;;;1.20;99.90;;;;;;5054615;28;19913;-64
2022/12/05 13:44:28;;;;;;;;;;;1.20;99.90;;;;;;5065991;28;19913;-64
2022/12/05 13:46:54;;;;;;;;;;;1.20;99.90;;;;;;5055025;28;19974;-64
2022/12/05 13:49:28;;;;;;;;;;;1.20;99.90;;;;;;5054886;28;20009;-66
2022/12/05 13:51:53;;;;;;;;;;;1.20;99.90;;;;;;5053703;28;19948;-66
2022/12/05 13:54:21;;;;;;;;;;;1.20;99.90;;;;;;5052977;28;19959;-64
2022/12/05 13:56:49;;;;;;;;;;;1.20;99.90;;;;;;5047475;28;19909;-64
2022/12/05 13:59:34;;;;;;;;;;;1.20;99.90;;;;;;5055007;28;19913;-63
2022/12/05 14:02:00;;;;;;;;;;;1.10;99.90;;;;;;5055338;28;19927;-65
2022/12/05 14:04:41;;;;;;;;;;;1.20;99.90;;;;;;5056768;28;19909;-65
2022/12/05 14:07:08;;;;;;;;;;;1.10;99.90;;;;;;5066746;28;20377;-65
2022/12/05 14:09:51;;;;;;;;;;;1.10;99.90;;;;;;5058963;28;19921;-63
2022/12/05 14:12:19;;;;;;;;;;;1.10;99.90;;;;;;5056160;28;19909;-64
2022/12/05 14:15:00;;;;;;;;;;;1.20;99.90;;;;;;5070487;28;19913;-64
2022/12/05 14:17:30;;;;;;;;;;;1.20;99.90;;;;;;5064018;28;19915;-64
2022/12/05 14:20:03;;;;;;;;;;;1.10;99.90;;;;;;5060789;28;20355;-65
2022/12/05 14:22:48;;;;;;;;;;;1.10;99.90;;;;;;5070850;28;19915;-64
2022/12/05 14:25:22;;;;;;;;;;;1.20;99.90;;;;;;5062192;28;20276;-63
2022/12/05 14:27:54;;;;;;;;;;;1.10;99.90;;;;;;5061441;28;20283;-64
2022/12/05 14:30:22;;;;;;;;;;;1.10;99.90;;;;;;5070492;28;19962;-64
2022/12/05 14:32:49;;;;;;;;;;;1.10;99.90;;;;;;5058577;28;19915;-64
2022/12/05 14:35:16;;;;;;;;;;;1.10;99.90;;;;;;5048333;28;19959;-64
2022/12/05 14:37:49;;;;;;;;;;;1.10;99.90;;;;;;5058226;28;20011;-64
2022/12/05 14:40:34;;;;;;;;;;;1.00;99.90;;;;;;5066449;28;19919;-64
2022/12/05 14:43:05;;;;;;;;;;;1.00;99.90;;;;;;5054081;28;19908;-64
2022/12/05 14:45:35;;;;;;;;;;;1.00;99.90;;;;;;5063732;28;19949;-64
2022/12/05 14:48:04;;;;;;;;;;;1.00;99.90;;;;;;5068076;28;19908;-65
2022/12/05 14:50:35;;;;;;;;;;;1.00;99.90;;;;;;5056962;28;19909;-65
2022/12/05 14:53:20;;;;;;;;;;;1.00;99.90;;;;;;5074019;28;20429;-65
2022/12/05 14:55:55;;;;;;;;;;;1.10;99.90;;;;;;5073610;28;19909;-65
2022/12/05 14:58:27;;;;;;;;;;;1.00;99.90;;;;;;5073777;28;20350;-65
2022/12/05 15:00:54;;;;;;;;;;;1.00;99.90;;;;;;5069487;28;19916;-64
2022/12/05 15:03:23;;;;;;;;;;;1.00;99.90;;;;;;5055506;28;19913;-64
2022/12/05 15:05:49;;;;;;;;;;;1.00;99.90;;;;;;5053612;28;19909;-64
2022/12/05 15:08:15;;;;;;;;;;;1.00;99.90;;;;;;5053887;28;19913;-64
2022/12/05 15:10:41;;;;;;;;;;;1.00;99.90;;;;;;5054073;28;20038;-65